sensor_id;sensor_type;location;lat;lon;timestamp;pressure;altitude;pressure_sealevel;temperature;humidity
42603;BME280;28233;55.748;48.752;2022-12-18T00:02:00;99732.34;;;-2.74;100.00
42603;BME280;28233;55.748;48.752;2022-12-18T00:04:07;99727.19;;;-2.76;100.00
42603;BME280;28233;55.748;48.752;2022-12-18T00:06:19;99726.16;;;-2.75;100.00
42603;BME280;28233;55.748;48.752;2022-12-18T00:08:22;99708.50;;;-2.71;100.00
42603;BME280;28233;55.748;48.752;2022-12-18T00:10:24;99702.41;;;-2.66;100.00
42603;BME280;28233;55.748;48.752;2022-12-18T00:12:27;99702.66;;;-2.68;100.00
42603;BME280;28233;55.748;48.752;2022-12-18T00:14:31;99694.59;;;-2.68;100.00
42603;BME280;28233;55.748;48.752;2022-12-18T00:16:34;99698.31;;;-2.69;100.00
42603;BME280;28233;55.748;48.752;2022-12-18T00:18:39;99701.38;;;-2.65;100.00
42603;BME280;28233;55.748;48.752;2022-12-18T00:20:43;99695.63;;;-2.69;100.00
42603;BME280;28233;55.748;48.752;2022-12-18T00:22:46;99695.63;;;-2.69;100.00
42603;BME280;28233;55.748;48.752;2022-12-18T00:24:48;99691.06;;;-2.68;100.00
42603;BME280;28233;55.748;48.752;2022-12-18T00:26:51;99677.88;;;-2.70;100.00
42603;BME280;28233;55.748;48.752;2022-12-18T00:28:54;99673.91;;;-2.67;100.00
42603;BME280;28233;55.748;48.752;2022-12-18T00:31:01;99677.41;;;-2.67;100.00
42603;BME280;28233;55.748;48.752;2022-12-18T00:33:03;99667.94;;;-2.69;100.00
42603;BME280;28233;55.748;48.752;2022-12-18T00:35:07;99660.34;;;-2.72;100.00
42603;BME280;28233;55.748;48.752;2022-12-18T00:37:09;99660.56;;;-2.74;100.00
42603;BME280;28233;55.748;48.752;2022-12-18T00:39:19;99647.31;;;-2.76;100.00
42603;BME280;28233;55.748;48.752;2022-12-18T00:41:22;99649.41;;;-2.78;100.00
42603;BME280;28233;55.748;48.752;2022-12-18T00:43:43;99641.00;;;-2.81;100.00
42603;BME280;28233;55.748;48.752;2022-12-18T00:45:45;99631.53;;;-2.84;100.00
42603;BME280;28233;55.748;48.752;2022-12-18T00:47:48;99628.63;;;-2.82;100.00
42603;BME280;28233;55.748;48.752;2022-12-18T00:49:51;99628.25;;;-2.86;100.00
42603;BME280;28233;55.748;48.752;2022-12-18T00:51:57;99634.22;;;-2.84;100.00
42603;BME280;28233;55.748;48.752;2022-12-18T00:53:59;99632.72;;;-2.80;100.00
42603;BME280;28233;55.748;48.752;2022-12-18T00:56:02;99633.75;;;-2.81;100.00
42603;BME280;28233;55.748;48.752;2022-12-18T00:58:05;99631.88;;;-2.80;100.00
42603;BME280;28233;55.748;48.752;2022-12-18T01:00:13;99634.56;;;-2.80;100.00
42603;BME280;28233;55.748;48.752;2022-12-18T01:02:16;99631.88;;;-2.80;100.00
42603;BME280;28233;55.748;48.752;2022-12-18T01:04:18;99623.81;;;-2.80;100.00
42603;BME280;28233;55.748;48.752;2022-12-18T01:06:21;99624.66;;;-2.80;100.00
42603;BME280;28233;55.748;48.752;2022-12-18T01:08:24;99625.47;;;-2.79;100.00
42603;BME280;28233;55.748;48.752;2022-12-18T01:10:27;99616.34;;;-2.78;100.00
42603;BME280;28233;55.748;48.752;2022-12-18T01:12:29;99617.41;;;-2.79;100.00
42603;BME280;28233;55.748;48.752;2022-12-18T01:14:32;99607.25;;;-2.77;100.00
42603;BME280;28233;55.748;48.752;2022-12-18T01:16:35;99603.84;;;-2.72;100.00
42603;BME280;28233;55.748;48.752;2022-12-18T01:18:37;99596.81;;;-2.73;100.00
42603;BME280;28233;55.748;48.752;2022-12-18T01:20:40;99594.25;;;-2.68;100.00
42603;BME280;28233;55.748;48.752;2022-12-18T01:22:43;99586.19;;;-2.68;100.00
42603;BME280;28233;55.748;48.752;2022-12-18T01:24:45;99570.28;;;-2.70;100.00
42603;BME280;28233;55.748;48.752;2022-12-18T01:26:48;99562.22;;;-2.70;100.00
42603;BME280;28233;55.748;48.752;2022-12-18T01:28:50;99553.69;;;-2.67;100.00
42603;BME280;28233;55.748;48.752;2022-12-18T01:30:53;99550.06;;;-2.72;100.00
42603;BME280;28233;55.748;48.752;2022-12-18T01:32:56;99565.84;;;-2.64;100.00
42603;BME280;28233;55.748;48.752;2022-12-18T01:34:58;99549.38;;;-2.68;100.00
42603;BME280;28233;55.748;48.752;2022-12-18T01:37:03;99520.22;;;-2.71;100.00
42603;BME280;28233;55.748;48.752;2022-12-18T01:39:11;99508.44;;;-2.70;100.00
42603;BME280;28233;55.748;48.752;2022-12-18T01:41:18;99510.44;;;-2.77;100.00
42603;BME280;28233;55.748;48.752;2022-12-18T01:43:20;99518.25;;;-2.76;100.00
42603;BME280;28233;55.748;48.752;2022-12-18T01:45:28;99516.63;;;-2.77;100.00
42603;BME280;28233;55.748;48.752;2022-12-18T01:48:02;99507.47;;;-2.76;100.00
42603;BME280;28233;55.748;48.752;2022-12-18T01:52:28;99483.28;;;-2.76;100.00
42603;BME280;28233;55.748;48.752;2022-12-18T01:54:31;99494.03;;;-2.76;100.00
42603;BME280;28233;55.748;48.752;2022-12-18T01:56:34;99501.28;;;-2.76;100.00
42603;BME280;28233;55.748;48.752;2022-12-18T01:58:58;99494.28;;;-2.77;100.00
42603;BME280;28233;55.748;48.752;2022-12-18T02:01:02;99481.88;;;-2.78;100.00
42603;BME280;28233;55.748;48.752;2022-12-18T02:03:05;99473.22;;;-2.80;100.00
42603;BME280;28233;55.748;48.752;2022-12-18T02:05:09;99467.63;;;-2.79;100.00
42603;BME280;28233;55.748;48.752;2022-12-18T02:07:28;99456.88;;;-2.79;100.00
42603;BME280;28233;55.748;48.752;2022-12-18T02:09:42;99440.84;;;-2.85;100.00
42603;BME280;28233;55.748;48.752;2022-12-18T02:12:20;99444.13;;;-2.83;100.00
42603;BME280;28233;55.748;48.752;2022-12-18T02:14:48;99429.06;;;-2.84;100.00
42603;BME280;28233;55.748;48.752;2022-12-18T02:17:02;99425.66;;;-2.80;100.00
42603;BME280;28233;55.748;48.752;2022-12-18T02:19:20;99422.84;;;-2.85;100.00
42603;BME280;28233;55.748;48.752;2022-12-18T02:21:36;99422.63;;;-2.83;100.00
42603;BME280;28233;55.748;48.752;2022-12-18T02:23:56;99414.56;;;-2.83;100.00
42603;BME280;28233;55.748;48.752;2022-12-18T02:28:31;99391.88;;;-2.87;100.00
42603;BME280;28233;55.748;48.752;2022-12-18T02:30:37;99385.47;;;-2.86;100.00
42603;BME280;28233;55.748;48.752;2022-12-18T02:32:46;99368.84;;;-2.83;100.00
42603;BME280;28233;55.748;48.752;2022-12-18T02:34:55;99359.38;;;-2.86;100.00
42603;BME280;28233;55.748;48.752;2022-12-18T02:37:02;99356.91;;;-2.87;100.00
42603;BME280;28233;55.748;48.752;2022-12-18T02:39:09;99352.59;;;-2.88;100.00
42603;BME280;28233;55.748;48.752;2022-12-18T02:41:14;99346.06;;;-2.92;100.00
42603;BME280;28233;55.748;48.752;2022-12-18T02:43:18;99327.84;;;-2.90;100.00
42603;BME280;28233;55.748;48.752;2022-12-18T02:45:20;99309.59;;;-2.88;100.00
42603;BME280;28233;55.748;48.752;2022-12-18T02:47:25;99301.53;;;-2.88;100.00
42603;BME280;28233;55.748;48.752;2022-12-18T02:53:51;99300.00;;;-2.84;100.00
42603;BME280;28233;55.748;48.752;2022-12-18T02:56:16;99298.25;;;-2.90;100.00
42603;BME280;28233;55.748;48.752;2022-12-18T03:01:23;99290.53;;;-2.87;100.00
42603;BME280;28233;55.748;48.752;2022-12-18T03:03:30;99278.84;;;-2.92;100.00
42603;BME280;28233;55.748;48.752;2022-12-18T03:05:47;99285.97;;;-2.86;100.00
42603;BME280;28233;55.748;48.752;2022-12-18T03:08:06;99283.88;;;-2.84;100.00
42603;BME280;28233;55.748;48.752;2022-12-18T03:10:14;99286.06;;;-2.81;100.00
42603;BME280;28233;55.748;48.752;2022-12-18T03:12:54;99275.09;;;-2.80;100.00
42603;BME280;28233;55.748;48.752;2022-12-18T03:15:03;99267.16;;;-2.86;100.00
42603;BME280;28233;55.748;48.752;2022-12-18T03:17:10;99278.81;;;-2.81;100.00
42603;BME280;28233;55.748;48.752;2022-12-18T03:19:18;99262.44;;;-2.79;100.00
42603;BME280;28233;55.748;48.752;2022-12-18T03:21:28;99258.94;;;-2.80;100.00
42603;BME280;28233;55.748;48.752;2022-12-18T03:23:39;99257.66;;;-2.77;100.00
42603;BME280;28233;55.748;48.752;2022-12-18T03:25:44;99246.53;;;-2.81;100.00
42603;BME280;28233;55.748;48.752;2022-12-18T03:27:49;99230.50;;;-2.76;100.00
42603;BME280;28233;55.748;48.752;2022-12-18T03:30:02;99226.41;;;-2.78;100.00
42603;BME280;28233;55.748;48.752;2022-12-18T03:32:19;99223.00;;;-2.73;100.00
42603;BME280;28233;55.748;48.752;2022-12-18T03:34:28;99200.19;;;-2.71;100.00
42603;BME280;28233;55.748;48.752;2022-12-18T03:36:32;99185.44;;;-2.68;100.00
42603;BME280;28233;55.748;48.752;2022-12-18T03:38:35;99180.91;;;-2.68;100.00
42603;BME280;28233;55.748;48.752;2022-12-18T03:40:43;99176.91;;;-2.65;100.00
42603;BME280;28233;55.748;48.752;2022-12-18T03:42:51;99161.09;;;-2.62;100.00
42603;BME280;28233;55.748;48.752;2022-12-18T03:45:03;99139.91;;;-2.58;100.00
42603;BME280;28233;55.748;48.752;2022-12-18T03:47:16;99116.50;;;-2.58;100.00
42603;BME280;28233;55.748;48.752;2022-12-18T03:54:28;99108.00;;;-2.49;100.00
42603;BME280;28233;55.748;48.752;2022-12-18T03:56:36;99098.50;;;-2.57;100.00
42603;BME280;28233;55.748;48.752;2022-12-18T03:58:42;99085.69;;;-2.50;100.00
42603;BME280;28233;55.748;48.752;2022-12-18T04:00:47;99082.25;;;-2.45;100.00
42603;BME280;28233;55.748;48.752;2022-12-18T04:02:54;99065.88;;;-2.44;100.00
42603;BME280;28233;55.748;48.752;2022-12-18T04:05:00;99049.47;;;-2.42;100.00
42603;BME280;28233;55.748;48.752;2022-12-18T04:07:05;99057.28;;;-2.41;100.00
42603;BME280;28233;55.748;48.752;2022-12-18T04:09:09;99047.69;;;-2.37;100.00
42603;BME280;28233;55.748;48.752;2022-12-18T04:11:12;99040.47;;;-2.31;100.00
42603;BME280;28233;55.748;48.752;2022-12-18T04:13:27;99034.03;;;-2.30;100.00
42603;BME280;28233;55.748;48.752;2022-12-18T04:15:33;99025.69;;;-2.28;100.00
42603;BME280;28233;55.748;48.752;2022-12-18T04:17:38;99027.06;;;-2.26;100.00
42603;BME280;28233;55.748;48.752;2022-12-18T04:19:41;99027.59;;;-2.29;100.00
42603;BME280;28233;55.748;48.752;2022-12-18T04:21:43;99019.50;;;-2.29;100.00
42603;BME280;28233;55.748;48.752;2022-12-18T04:23:46;99013.56;;;-2.31;100.00
42603;BME280;28233;55.748;48.752;2022-12-18T04:25:49;99024.66;;;-2.27;100.00
42603;BME280;28233;55.748;48.752;2022-12-18T04:27:51;99018.75;;;-2.24;100.00
42603;BME280;28233;55.748;48.752;2022-12-18T04:29:54;99030.66;;;-2.20;100.00
42603;BME280;28233;55.748;48.752;2022-12-18T04:31:57;99030.97;;;-2.17;100.00
42603;BME280;28233;55.748;48.752;2022-12-18T04:33:59;99042.28;;;-2.15;100.00
42603;BME280;28233;55.748;48.752;2022-12-18T04:36:02;99048.75;;;-2.16;100.00
42603;BME280;28233;55.748;48.752;2022-12-18T04:38:06;99053.13;;;-2.09;100.00
42603;BME280;28233;55.748;48.752;2022-12-18T04:40:11;99073.16;;;-2.00;100.00
42603;BME280;28233;55.748;48.752;2022-12-18T04:42:15;99076.88;;;-2.06;100.00
42603;BME280;28233;55.748;48.752;2022-12-18T04:44:17;99110.63;;;-1.99;100.00
42603;BME280;28233;55.748;48.752;2022-12-18T04:46:20;99119.13;;;-1.85;100.00
42603;BME280;28233;55.748;48.752;2022-12-18T04:48:23;99103.78;;;-1.84;100.00
42603;BME280;28233;55.748;48.752;2022-12-18T04:50:25;99080.34;;;-1.84;100.00
42603;BME280;28233;55.748;48.752;2022-12-18T04:52:31;99066.41;;;-1.81;100.00
42603;BME280;28233;55.748;48.752;2022-12-18T04:54:34;99067.22;;;-1.80;100.00
42603;BME280;28233;55.748;48.752;2022-12-18T04:56:36;99074.78;;;-1.77;100.00
42603;BME280;28233;55.748;48.752;2022-12-18T04:58:40;99084.81;;;-1.73;100.00
42603;BME280;28233;55.748;48.752;2022-12-18T05:00:43;99080.00;;;-1.71;100.00
42603;BME280;28233;55.748;48.752;2022-12-18T05:02:46;99063.06;;;-1.66;100.00
42603;BME280;28233;55.748;48.752;2022-12-18T05:04:49;99060.94;;;-1.64;100.00
42603;BME280;28233;55.748;48.752;2022-12-18T05:06:52;99047.47;;;-1.64;100.00
42603;BME280;28233;55.748;48.752;2022-12-18T05:08:54;99040.81;;;-1.56;100.00
42603;BME280;28233;55.748;48.752;2022-12-18T05:11:05;99031.41;;;-1.54;100.00
42603;BME280;28233;55.748;48.752;2022-12-18T05:13:09;99016.31;;;-1.55;100.00
42603;BME280;28233;55.748;48.752;2022-12-18T05:15:11;99014.72;;;-1.51;100.00
42603;BME280;28233;55.748;48.752;2022-12-18T05:17:14;99001.81;;;-1.49;100.00
42603;BME280;28233;55.748;48.752;2022-12-18T05:19:16;99015.34;;;-1.43;100.00
42603;BME280;28233;55.748;48.752;2022-12-18T05:21:19;99013.47;;;-1.43;100.00
42603;BME280;28233;55.748;48.752;2022-12-18T05:23:23;98999.44;;;-1.45;100.00
42603;BME280;28233;55.748;48.752;2022-12-18T05:25:26;98981.16;;;-1.38;100.00
42603;BME280;28233;55.748;48.752;2022-12-18T05:27:29;98968.25;;;-1.36;100.00
42603;BME280;28233;55.748;48.752;2022-12-18T05:29:32;98966.13;;;-1.34;100.00
42603;BME280;28233;55.748;48.752;2022-12-18T05:31:34;98967.44;;;-1.36;100.00
42603;BME280;28233;55.748;48.752;2022-12-18T05:33:41;98970.66;;;-1.34;100.00
42603;BME280;28233;55.748;48.752;2022-12-18T05:35:53;98966.88;;;-1.38;100.00
42603;BME280;28233;55.748;48.752;2022-12-18T05:37:56;98971.75;;;-1.35;100.00
42603;BME280;28233;55.748;48.752;2022-12-18T05:39:59;98954.81;;;-1.31;100.00
42603;BME280;28233;55.748;48.752;2022-12-18T05:42:02;98947.31;;;-1.23;100.00
42603;BME280;28233;55.748;48.752;2022-12-18T05:44:04;98925.50;;;-1.22;100.00
42603;BME280;28233;55.748;48.752;2022-12-18T05:46:17;98926.84;;;-1.24;100.00
42603;BME280;28233;55.748;48.752;2022-12-18T05:48:20;98905.00;;;-1.23;100.00
42603;BME280;28233;55.748;48.752;2022-12-18T05:50:23;98883.16;;;-1.26;100.00
42603;BME280;28233;55.748;48.752;2022-12-18T05:52:26;98884.84;;;-1.15;100.00
42603;BME280;28233;55.748;48.752;2022-12-18T05:54:28;98885.91;;;-1.16;100.00
42603;BME280;28233;55.748;48.752;2022-12-18T05:56:31;98894.00;;;-1.11;100.00
42603;BME280;28233;55.748;48.752;2022-12-18T05:58:34;98874.91;;;-1.10;100.00
42603;BME280;28233;55.748;48.752;2022-12-18T06:00:41;98870.56;;;-1.11;100.00
42603;BME280;28233;55.748;48.752;2022-12-18T06:02:47;98863.00;;;-1.14;100.00
42603;BME280;28233;55.748;48.752;2022-12-18T06:04:49;98856.28;;;-1.11;100.00
42603;BME280;28233;55.748;48.752;2022-12-18T06:06:53;98851.75;;;-1.05;100.00
42603;BME280;28233;55.748;48.752;2022-12-18T06:08:58;98848.22;;;-1.06;100.00
42603;BME280;28233;55.748;48.752;2022-12-18T06:11:00;98839.31;;;-1.07;100.00
42603;BME280;28233;55.748;48.752;2022-12-18T06:13:03;98824.47;;;-1.09;100.00
42603;BME280;28233;55.748;48.752;2022-12-18T06:15:06;98800.50;;;-1.05;100.00
42603;BME280;28233;55.748;48.752;2022-12-18T06:17:09;98779.75;;;-1.05;100.00
42603;BME280;28233;55.748;48.752;2022-12-18T06:19:15;98774.34;;;-1.05;100.00
42603;BME280;28233;55.748;48.752;2022-12-18T06:21:18;98761.66;;;-1.10;100.00
42603;BME280;28233;55.748;48.752;2022-12-18T06:23:21;98760.56;;;-1.09;100.00
42603;BME280;28233;55.748;48.752;2022-12-18T06:25:23;98755.47;;;-1.10;100.00
42603;BME280;28233;55.748;48.752;2022-12-18T06:27:26;98770.84;;;-1.05;100.00
42603;BME280;28233;55.748;48.752;2022-12-18T06:29:29;98756.00;;;-1.08;100.00
42603;BME280;28233;55.748;48.752;2022-12-18T06:31:32;98761.19;;;-0.96;100.00
42603;BME280;28233;55.748;48.752;2022-12-18T06:33:35;98761.69;;;-0.94;100.00
42603;BME280;28233;55.748;48.752;2022-12-18T06:35:38;98776.03;;;-0.94;100.00
42603;BME280;28233;55.748;48.752;2022-12-18T06:37:41;98775.47;;;-0.91;100.00
42603;BME280;28233;55.748;48.752;2022-12-18T06:39:44;98794.63;;;-0.87;100.00
42603;BME280;28233;55.748;48.752;2022-12-18T06:41:46;98821.88;;;-0.89;100.00
42603;BME280;28233;55.748;48.752;2022-12-18T06:43:49;98835.38;;;-0.89;100.00
42603;BME280;28233;55.748;48.752;2022-12-18T06:46:00;98848.03;;;-0.89;100.00
42603;BME280;28233;55.748;48.752;2022-12-18T06:48:03;98827.81;;;-0.87;100.00
42603;BME280;28233;55.748;48.752;2022-12-18T06:50:06;98835.38;;;-0.83;100.00
42603;BME280;28233;55.748;48.752;2022-12-18T06:52:08;98830.53;;;-0.81;100.00
42603;BME280;28233;55.748;48.752;2022-12-18T06:54:11;98830.56;;;-0.76;100.00
42603;BME280;28233;55.748;48.752;2022-12-18T06:56:15;98821.66;;;-0.77;100.00
42603;BME280;28233;55.748;48.752;2022-12-18T06:58:18;98812.22;;;-0.74;100.00
42603;BME280;28233;55.748;48.752;2022-12-18T07:00:21;98797.94;;;-0.70;100.00
42603;BME280;28233;55.748;48.752;2022-12-18T07:02:24;98786.59;;;-0.67;100.00
42603;BME280;28233;55.748;48.752;2022-12-18T07:04:29;98780.97;;;-0.60;100.00
42603;BME280;28233;55.748;48.752;2022-12-18T07:06:32;98767.47;;;-0.55;100.00
42603;BME280;28233;55.748;48.752;2022-12-18T07:08:35;98756.69;;;-0.50;100.00
42603;BME280;28233;55.748;48.752;2022-12-18T07:10:42;98755.06;;;-0.46;100.00
42603;BME280;28233;55.748;48.752;2022-12-18T07:12:50;98746.72;;;-0.44;100.00
42603;BME280;28233;55.748;48.752;2022-12-18T07:14:52;98737.00;;;-0.40;100.00
42603;BME280;28233;55.748;48.752;2022-12-18T07:16:55;98737.00;;;-0.35;100.00
42603;BME280;28233;55.748;48.752;2022-12-18T07:18:58;98738.34;;;-0.27;100.00
42603;BME280;28233;55.748;48.752;2022-12-18T07:21:07;98735.09;;;-0.24;100.00
42603;BME280;28233;55.748;48.752;2022-12-18T07:23:11;98728.66;;;-0.23;100.00
42603;BME280;28233;55.748;48.752;2022-12-18T07:25:15;98724.31;;;-0.19;100.00
42603;BME280;28233;55.748;48.752;2022-12-18T07:27:18;98719.75;;;-0.18;100.00
42603;BME280;28233;55.748;48.752;2022-12-18T07:29:21;98714.59;;;-0.15;100.00
42603;BME280;28233;55.748;48.752;2022-12-18T07:31:24;98717.84;;;-0.13;100.00
42603;BME280;28233;55.748;48.752;2022-12-18T07:33:28;98697.56;;;-0.10;100.00
42603;BME280;28233;55.748;48.752;2022-12-18T07:35:33;98694.06;;;-0.11;100.00
42603;BME280;28233;55.748;48.752;2022-12-18T07:37:35;98698.91;;;-0.08;100.00
42603;BME280;28233;55.748;48.752;2022-12-18T07:39:38;98701.91;;;-0.04;100.00
42603;BME280;28233;55.748;48.752;2022-12-18T07:41:41;98702.97;;;-0.05;100.00
42603;BME280;28233;55.748;48.752;2022-12-18T07:44:11;98695.41;;;-0.03;100.00
42603;BME280;28233;55.748;48.752;2022-12-18T07:46:15;98674.06;;;0.01;100.00
42603;BME280;28233;55.748;48.752;2022-12-18T07:48:18;98661.91;;;0.03;100.00
42603;BME280;28233;55.748;48.752;2022-12-18T07:50:20;98650.31;;;0.03;100.00
42603;BME280;28233;55.748;48.752;2022-12-18T07:52:23;98640.31;;;0.03;100.00
42603;BME280;28233;55.748;48.752;2022-12-18T07:54:27;98637.59;;;0.03;100.00
42603;BME280;28233;55.748;48.752;2022-12-18T07:56:30;98644.88;;;0.08;100.00
42603;BME280;28233;55.748;48.752;2022-12-18T07:58:35;98615.19;;;0.08;100.00
42603;BME280;28233;55.748;48.752;2022-12-18T08:00:38;98624.09;;;0.08;100.00
42603;BME280;28233;55.748;48.752;2022-12-18T08:02:40;98618.13;;;0.11;100.00
42603;BME280;28233;55.748;48.752;2022-12-18T08:04:44;98622.72;;;0.11;100.00
42603;BME280;28233;55.748;48.752;2022-12-18T08:06:46;98617.59;;;0.14;100.00
42603;BME280;28233;55.748;48.752;2022-12-18T08:08:54;98616.22;;;0.17;100.00
42603;BME280;28233;55.748;48.752;2022-12-18T08:10:57;98614.91;;;0.14;100.00
42603;BME280;28233;55.748;48.752;2022-12-18T08:13:00;98632.44;;;0.17;100.00
42603;BME280;28233;55.748;48.752;2022-12-18T08:15:06;98628.09;;;0.16;100.00
42603;BME280;28233;55.748;48.752;2022-12-18T08:17:09;98610.84;;;0.17;100.00
42603;BME280;28233;55.748;48.752;2022-12-18T08:19:12;98619.97;;;0.21;100.00
42603;BME280;28233;55.748;48.752;2022-12-18T08:21:20;98624.31;;;0.22;100.00
42603;BME280;28233;55.748;48.752;2022-12-18T08:23:25;98634.31;;;0.22;100.00
42603;BME280;28233;55.748;48.752;2022-12-18T08:25:43;98603.50;;;0.23;100.00
42603;BME280;28233;55.748;48.752;2022-12-18T08:27:46;98597.84;;;0.24;100.00
42603;BME280;28233;55.748;48.752;2022-12-18T08:29:48;98590.56;;;0.19;100.00
42603;BME280;28233;55.748;48.752;2022-12-18T08:31:51;98589.69;;;0.29;100.00
42603;BME280;28233;55.748;48.752;2022-12-18T08:33:54;98593.47;;;0.28;100.00
42603;BME280;28233;55.748;48.752;2022-12-18T08:35:58;98598.03;;;0.33;100.00
42603;BME280;28233;55.748;48.752;2022-12-18T08:38:01;98595.63;;;0.31;100.00
42603;BME280;28233;55.748;48.752;2022-12-18T08:40:04;98614.25;;;0.33;100.00
42603;BME280;28233;55.748;48.752;2022-12-18T08:42:08;98608.34;;;0.31;100.00
42603;BME280;28233;55.748;48.752;2022-12-18T08:44:30;98631.56;;;0.32;100.00
42603;BME280;28233;55.748;48.752;2022-12-18T08:46:42;98633.72;;;0.30;100.00
42603;BME280;28233;55.748;48.752;2022-12-18T08:48:47;98622.13;;;0.29;100.00
42603;BME280;28233;55.748;48.752;2022-12-18T08:50:56;98616.72;;;0.29;100.00
42603;BME280;28233;55.748;48.752;2022-12-18T08:53:00;98608.06;;;0.32;100.00
42603;BME280;28233;55.748;48.752;2022-12-18T08:55:03;98604.28;;;0.33;100.00
42603;BME280;28233;55.748;48.752;2022-12-18T08:57:06;98587.50;;;0.36;100.00
42603;BME280;28233;55.748;48.752;2022-12-18T08:59:09;98589.41;;;0.36;100.00
42603;BME280;28233;55.748;48.752;2022-12-18T09:01:22;98572.91;;;0.37;100.00
42603;BME280;28233;55.748;48.752;2022-12-18T09:03:26;98571.81;;;0.38;100.00
42603;BME280;28233;55.748;48.752;2022-12-18T09:05:30;98583.72;;;0.43;100.00
42603;BME280;28233;55.748;48.752;2022-12-18T09:07:32;98566.66;;;0.42;100.00
42603;BME280;28233;55.748;48.752;2022-12-18T09:09:35;98572.59;;;0.44;100.00
42603;BME280;28233;55.748;48.752;2022-12-18T09:11:38;98553.41;;;0.46;100.00
42603;BME280;28233;55.748;48.752;2022-12-18T09:13:41;98570.16;;;0.48;100.00
42603;BME280;28233;55.748;48.752;2022-12-18T09:15:46;98553.69;;;0.44;100.00
42603;BME280;28233;55.748;48.752;2022-12-18T09:17:49;98542.34;;;0.47;100.00
42603;BME280;28233;55.748;48.752;2022-12-18T09:19:52;98543.13;;;0.48;100.00
42603;BME280;28233;55.748;48.752;2022-12-18T09:21:55;98535.56;;;0.50;100.00
42603;BME280;28233;55.748;48.752;2022-12-18T09:23:58;98542.00;;;0.54;100.00
42603;BME280;28233;55.748;48.752;2022-12-18T09:26:00;98536.06;;;0.57;100.00
42603;BME280;28233;55.748;48.752;2022-12-18T09:28:12;98529.00;;;0.56;100.00
42603;BME280;28233;55.748;48.752;2022-12-18T09:30:18;98533.88;;;0.59;100.00
42603;BME280;28233;55.748;48.752;2022-12-18T09:32:20;98533.59;;;0.60;100.00
42603;BME280;28233;55.748;48.752;2022-12-18T09:34:23;98528.72;;;0.62;100.00
42603;BME280;28233;55.748;48.752;2022-12-18T09:36:26;98534.63;;;0.65;100.00
42603;BME280;28233;55.748;48.752;2022-12-18T09:38:29;98534.38;;;0.66;100.00
42603;BME280;28233;55.748;48.752;2022-12-18T09:40:39;98540.84;;;0.65;100.00
42603;BME280;28233;55.748;48.752;2022-12-18T09:42:48;98540.00;;;0.70;100.00
42603;BME280;28233;55.748;48.752;2022-12-18T09:44:54;98540.81;;;0.70;100.00
42603;BME280;28233;55.748;48.752;2022-12-18T09:47:02;98547.84;;;0.71;100.00
42603;BME280;28233;55.748;48.752;2022-12-18T09:49:14;98547.06;;;0.71;100.00
42603;BME280;28233;55.748;48.752;2022-12-18T09:51:22;98552.16;;;0.72;100.00
42603;BME280;28233;55.748;48.752;2022-12-18T09:53:31;98542.97;;;0.73;100.00
42603;BME280;28233;55.748;48.752;2022-12-18T09:55:41;98533.75;;;0.74;100.00
42603;BME280;28233;55.748;48.752;2022-12-18T09:57:49;98516.75;;;0.74;100.00
42603;BME280;28233;55.748;48.752;2022-12-18T09:59:56;98520.50;;;0.73;100.00
42603;BME280;28233;55.748;48.752;2022-12-18T10:02:24;98521.03;;;0.75;100.00
42603;BME280;28233;55.748;48.752;2022-12-18T10:04:30;98518.88;;;0.77;100.00
42603;BME280;28233;55.748;48.752;2022-12-18T10:06:40;98519.41;;;0.79;100.00
42603;BME280;28233;55.748;48.752;2022-12-18T10:08:51;98509.69;;;0.78;100.00
42603;BME280;28233;55.748;48.752;2022-12-18T10:11:10;98496.66;;;0.80;100.00
42603;BME280;28233;55.748;48.752;2022-12-18T10:13:38;98517.50;;;0.79;100.00
42603;BME280;28233;55.748;48.752;2022-12-18T10:18:36;98499.09;;;0.81;100.00
42603;BME280;28233;55.748;48.752;2022-12-18T10:20:54;98479.94;;;0.78;100.00
42603;BME280;28233;55.748;48.752;2022-12-18T10:23:24;98479.38;;;0.81;100.00
42603;BME280;28233;55.748;48.752;2022-12-18T10:26:07;98485.31;;;0.83;100.00
42603;BME280;28233;55.748;48.752;2022-12-18T10:28:13;98490.47;;;0.79;100.00
42603;BME280;28233;55.748;48.752;2022-12-18T10:30:19;98499.09;;;0.81;100.00
42603;BME280;28233;55.748;48.752;2022-12-18T10:32:28;98493.97;;;0.80;100.00
42603;BME280;28233;55.748;48.752;2022-12-18T10:34:31;98493.13;;;0.84;100.00
42603;BME280;28233;55.748;48.752;2022-12-18T10:36:34;98482.28;;;0.84;100.00
42603;BME280;28233;55.748;48.752;2022-12-18T10:38:37;98491.50;;;0.83;100.00
42603;BME280;28233;55.748;48.752;2022-12-18T10:40:51;98471.78;;;0.83;100.00
42603;BME280;28233;55.748;48.752;2022-12-18T10:45:29;98453.91;;;0.87;100.00
42603;BME280;28233;55.748;48.752;2022-12-18T10:47:33;98470.94;;;0.88;100.00
42603;BME280;28233;55.748;48.752;2022-12-18T10:49:39;98483.66;;;0.87;100.00
42603;BME280;28233;55.748;48.752;2022-12-18T10:51:44;98483.66;;;0.87;100.00
42603;BME280;28233;55.748;48.752;2022-12-18T10:53:52;98480.06;;;0.92;100.00
42603;BME280;28233;55.748;48.752;2022-12-18T10:56:02;98481.69;;;0.93;100.00
42603;BME280;28233;55.748;48.752;2022-12-18T10:58:34;98483.59;;;0.92;100.00
42603;BME280;28233;55.748;48.752;2022-12-18T11:00:37;98479.78;;;0.93;100.00
42603;BME280;28233;55.748;48.752;2022-12-18T11:02:40;98482.50;;;0.93;100.00
42603;BME280;28233;55.748;48.752;2022-12-18T11:04:50;98474.13;;;0.95;100.00
42603;BME280;28233;55.748;48.752;2022-12-18T11:07:06;98465.16;;;0.99;100.00
42603;BME280;28233;55.748;48.752;2022-12-18T11:09:29;98468.66;;;1.00;100.00
42603;BME280;28233;55.748;48.752;2022-12-18T11:11:33;98469.72;;;1.04;100.00
42603;BME280;28233;55.748;48.752;2022-12-18T11:13:36;98474.00;;;1.05;100.00
42603;BME280;28233;55.748;48.752;2022-12-18T11:15:40;98466.16;;;1.03;100.00
42603;BME280;28233;55.748;48.752;2022-12-18T11:17:43;98479.94;;;1.07;100.00